sensor_id;sensor_type;location;lat;lon;timestamp;temperature;humidity
74384;DHT22;62824;52.994;-3.936;2023-01-28T00:02:11;5.10;99.90
74384;DHT22;62824;52.994;-3.936;2023-01-28T00:04:38;5.10;99.90
74384;DHT22;62824;52.994;-3.936;2023-01-28T00:07:04;5.00;99.90
74384;DHT22;62824;52.994;-3.936;2023-01-28T00:09:30;5.00;99.90
74384;DHT22;62824;52.994;-3.936;2023-01-28T00:11:56;5.00;99.90
74384;DHT22;62824;52.994;-3.936;2023-01-28T00:14:22;5.00;99.90
74384;DHT22;62824;52.994;-3.936;2023-01-28T00:16:47;5.10;99.90
74384;DHT22;62824;52.994;-3.936;2023-01-28T00:19:13;5.10;99.90
74384;DHT22;62824;52.994;-3.936;2023-01-28T00:21:39;5.10;99.90
74384;DHT22;62824;52.994;-3.936;2023-01-28T00:24:05;5.10;99.90
74384;DHT22;62824;52.994;-3.936;2023-01-28T00:26:31;5.10;99.90
74384;DHT22;62824;52.994;-3.936;2023-01-28T00:28:57;5.10;99.90
74384;DHT22;62824;52.994;-3.936;2023-01-28T00:31:24;5.00;99.90
74384;DHT22;62824;52.994;-3.936;2023-01-28T00:33:52;5.00;99.90
74384;DHT22;62824;52.994;-3.936;2023-01-28T00:36:20;5.00;99.90
74384;DHT22;62824;52.994;-3.936;2023-01-28T00:38:54;4.90;99.90
74384;DHT22;62824;52.994;-3.936;2023-01-28T00:41:23;4.90;99.90
74384;DHT22;62824;52.994;-3.936;2023-01-28T00:43:50;4.90;99.90
74384;DHT22;62824;52.994;-3.936;2023-01-28T00:46:16;4.90;99.90
74384;DHT22;62824;52.994;-3.936;2023-01-28T00:48:43;4.90;99.90
74384;DHT22;62824;52.994;-3.936;2023-01-28T00:51:11;4.90;99.90
74384;DHT22;62824;52.994;-3.936;2023-01-28T00:57:12;5.00;99.90
74384;DHT22;62824;52.994;-3.936;2023-01-28T00:59:38;5.00;99.90
74384;DHT22;62824;52.994;-3.936;2023-01-28T01:02:04;5.10;99.90
74384;DHT22;62824;52.994;-3.936;2023-01-28T01:04:36;5.10;99.90
74384;DHT22;62824;52.994;-3.936;2023-01-28T01:07:02;5.10;99.90
74384;DHT22;62824;52.994;-3.936;2023-01-28T01:09:28;5.10;99.90
74384;DHT22;62824;52.994;-3.936;2023-01-28T01:11:54;5.10;99.90
74384;DHT22;62824;52.994;-3.936;2023-01-28T01:14:20;5.10;99.90
74384;DHT22;62824;52.994;-3.936;2023-01-28T01:16:46;5.10;99.90
74384;DHT22;62824;52.994;-3.936;2023-01-28T01:19:12;5.10;99.90
74384;DHT22;62824;52.994;-3.936;2023-01-28T01:21:38;5.10;99.90
74384;DHT22;62824;52.994;-3.936;2023-01-28T01:24:04;5.10;99.90
74384;DHT22;62824;52.994;-3.936;2023-01-28T01:26:30;5.00;99.90
74384;DHT22;62824;52.994;-3.936;2023-01-28T01:28:56;5.00;99.90
74384;DHT22;62824;52.994;-3.936;2023-01-28T01:31:22;4.90;99.90
74384;DHT22;62824;52.994;-3.936;2023-01-28T01:33:49;5.00;99.90
74384;DHT22;62824;52.994;-3.936;2023-01-28T01:36:16;5.00;99.90
74384;DHT22;62824;52.994;-3.936;2023-01-28T01:38:44;5.00;99.90
74384;DHT22;62824;52.994;-3.936;2023-01-28T01:41:24;5.00;99.90
74384;DHT22;62824;52.994;-3.936;2023-01-28T01:43:58;5.10;99.90
74384;DHT22;62824;52.994;-3.936;2023-01-28T01:46:44;5.10;99.90
74384;DHT22;62824;52.994;-3.936;2023-01-28T01:49:23;5.10;99.90
74384;DHT22;62824;52.994;-3.936;2023-01-28T01:55:34;5.00;99.90
74384;DHT22;62824;52.994;-3.936;2023-01-28T01:58:06;5.00;99.90
74384;DHT22;62824;52.994;-3.936;2023-01-28T02:00:32;5.10;99.90
74384;DHT22;62824;52.994;-3.936;2023-01-28T02:02:58;5.10;99.90
74384;DHT22;62824;52.994;-3.936;2023-01-28T02:05:25;5.10;99.90
74384;DHT22;62824;52.994;-3.936;2023-01-28T02:07:53;5.10;99.90
74384;DHT22;62824;52.994;-3.936;2023-01-28T02:10:21;5.10;99.90
74384;DHT22;62824;52.994;-3.936;2023-01-28T02:12:55;5.10;99.90
74384;DHT22;62824;52.994;-3.936;2023-01-28T02:15:23;5.00;99.90
74384;DHT22;62824;52.994;-3.936;2023-01-28T02:17:50;5.00;99.90
74384;DHT22;62824;52.994;-3.936;2023-01-28T02:20:30;5.00;99.90
74384;DHT22;62824;52.994;-3.936;2023-01-28T02:31:23;5.00;99.90
74384;DHT22;62824;52.994;-3.936;2023-01-28T02:39:53;5.00;99.90
74384;DHT22;62824;52.994;-3.936;2023-01-28T02:42:27;5.00;99.90
74384;DHT22;62824;52.994;-3.936;2023-01-28T02:44:54;5.10;99.90
74384;DHT22;62824;52.994;-3.936;2023-01-28T02:47:20;4.90;99.90
74384;DHT22;62824;52.994;-3.936;2023-01-28T02:50:07;4.90;99.90
74384;DHT22;62824;52.994;-3.936;2023-01-28T02:58:43;4.70;99.90
74384;DHT22;62824;52.994;-3.936;2023-01-28T03:01:20;4.70;99.90
74384;DHT22;62824;52.994;-3.936;2023-01-28T03:06:23;4.90;99.90
74384;DHT22;62824;52.994;-3.936;2023-01-28T03:08:57;4.90;99.90
74384;DHT22;62824;52.994;-3.936;2023-01-28T03:11:51;4.90;99.90
74384;DHT22;62824;52.994;-3.936;2023-01-28T03:14:36;4.80;99.90
74384;DHT22;62824;52.994;-3.936;2023-01-28T03:17:45;4.80;99.90
74384;DHT22;62824;52.994;-3.936;2023-01-28T03:21:03;4.80;99.90
74384;DHT22;62824;52.994;-3.936;2023-01-28T03:27:05;4.90;99.90
74384;DHT22;62824;52.994;-3.936;2023-01-28T03:29:52;5.00;99.90
74384;DHT22;62824;52.994;-3.936;2023-01-28T03:32:38;5.00;99.90
74384;DHT22;62824;52.994;-3.936;2023-01-28T03:35:27;5.00;99.90
74384;DHT22;62824;52.994;-3.936;2023-01-28T03:38:12;5.00;99.90
74384;DHT22;62824;52.994;-3.936;2023-01-28T03:40:58;5.00;99.90
74384;DHT22;62824;52.994;-3.936;2023-01-28T03:43:30;5.00;99.90
74384;DHT22;62824;52.994;-3.936;2023-01-28T03:45:56;4.90;99.90
74384;DHT22;62824;52.994;-3.936;2023-01-28T03:48:24;4.90;99.90
74384;DHT22;62824;52.994;-3.936;2023-01-28T03:50:50;4.80;99.90
74384;DHT22;62824;52.994;-3.936;2023-01-28T03:53:17;4.80;99.90
74384;DHT22;62824;52.994;-3.936;2023-01-28T03:55:48;4.90;99.90
74384;DHT22;62824;52.994;-3.936;2023-01-28T03:58:15;4.90;99.90
74384;DHT22;62824;52.994;-3.936;2023-01-28T04:00:42;4.90;99.90
74384;DHT22;62824;52.994;-3.936;2023-01-28T04:03:14;4.90;99.90
74384;DHT22;62824;52.994;-3.936;2023-01-28T04:05:45;4.90;99.90
74384;DHT22;62824;52.994;-3.936;2023-01-28T04:08:12;4.90;99.90
74384;DHT22;62824;52.994;-3.936;2023-01-28T04:10:38;4.90;99.90
74384;DHT22;62824;52.994;-3.936;2023-01-28T04:13:05;4.90;99.90
74384;DHT22;62824;52.994;-3.936;2023-01-28T04:15:32;4.90;99.90
74384;DHT22;62824;52.994;-3.936;2023-01-28T04:17:58;5.00;99.90
74384;DHT22;62824;52.994;-3.936;2023-01-28T04:20:25;5.00;99.90
74384;DHT22;62824;52.994;-3.936;2023-01-28T04:22:51;4.90;99.90
74384;DHT22;62824;52.994;-3.936;2023-01-28T04:25:17;5.00;99.90
74384;DHT22;62824;52.994;-3.936;2023-01-28T04:27:43;5.00;99.90
74384;DHT22;62824;52.994;-3.936;2023-01-28T04:30:09;5.00;99.90
74384;DHT22;62824;52.994;-3.936;2023-01-28T04:32:35;4.90;99.90
74384;DHT22;62824;52.994;-3.936;2023-01-28T04:38:23;4.90;99.90
74384;DHT22;62824;52.994;-3.936;2023-01-28T04:40:53;5.00;99.90
74384;DHT22;62824;52.994;-3.936;2023-01-28T04:43:19;5.00;99.90
74384;DHT22;62824;52.994;-3.936;2023-01-28T04:45:46;5.00;99.90
74384;DHT22;62824;52.994;-3.936;2023-01-28T04:48:13;5.10;99.90
74384;DHT22;62824;52.994;-3.936;2023-01-28T04:50:39;5.00;99.90
74384;DHT22;62824;52.994;-3.936;2023-01-28T04:53:06;5.10;99.90
74384;DHT22;62824;52.994;-3.936;2023-01-28T04:55:32;5.10;99.90
74384;DHT22;62824;52.994;-3.936;2023-01-28T04:57:58;5.10;99.90
74384;DHT22;62824;52.994;-3.936;2023-01-28T05:00:24;5.10;99.90
74384;DHT22;62824;52.994;-3.936;2023-01-28T05:02:50;5.10;99.90
74384;DHT22;62824;52.994;-3.936;2023-01-28T05:05:16;5.10;99.90
74384;DHT22;62824;52.994;-3.936;2023-01-28T05:07:41;5.10;99.90
74384;DHT22;62824;52.994;-3.936;2023-01-28T05:10:07;5.20;99.90
74384;DHT22;62824;52.994;-3.936;2023-01-28T05:12:33;5.10;99.90
74384;DHT22;62824;52.994;-3.936;2023-01-28T05:14:59;5.10;99.90
74384;DHT22;62824;52.994;-3.936;2023-01-28T05:17:26;5.20;99.90
74384;DHT22;62824;52.994;-3.936;2023-01-28T05:19:52;5.10;99.90
74384;DHT22;62824;52.994;-3.936;2023-01-28T05:22:18;5.10;99.90
74384;DHT22;62824;52.994;-3.936;2023-01-28T05:24:44;5.10;99.90
74384;DHT22;62824;52.994;-3.936;2023-01-28T05:27:09;5.10;99.90
74384;DHT22;62824;52.994;-3.936;2023-01-28T05:29:35;5.00;99.90
74384;DHT22;62824;52.994;-3.936;2023-01-28T05:32:01;5.00;99.90
74384;DHT22;62824;52.994;-3.936;2023-01-28T05:34:27;5.00;99.90
74384;DHT22;62824;52.994;-3.936;2023-01-28T05:36:53;5.00;99.90
74384;DHT22;62824;52.994;-3.936;2023-01-28T05:39:18;5.00;99.90
74384;DHT22;62824;52.994;-3.936;2023-01-28T05:41:44;5.10;99.90
74384;DHT22;62824;52.994;-3.936;2023-01-28T05:44:10;5.10;99.90
74384;DHT22;62824;52.994;-3.936;2023-01-28T05:46:36;5.10;99.90
74384;DHT22;62824;52.994;-3.936;2023-01-28T05:49:01;5.20;99.90
74384;DHT22;62824;52.994;-3.936;2023-01-28T05:51:27;5.20;99.90
74384;DHT22;62824;52.994;-3.936;2023-01-28T05:53:53;5.20;99.90
74384;DHT22;62824;52.994;-3.936;2023-01-28T05:56:18;5.20;99.90
74384;DHT22;62824;52.994;-3.936;2023-01-28T05:58:44;5.20;99.90
74384;DHT22;62824;52.994;-3.936;2023-01-28T06:01:10;5.20;99.90
74384;DHT22;62824;52.994;-3.936;2023-01-28T06:07:04;5.20;99.90
74384;DHT22;62824;52.994;-3.936;2023-01-28T06:09:29;5.20;99.90
74384;DHT22;62824;52.994;-3.936;2023-01-28T06:11:55;5.10;99.90
74384;DHT22;62824;52.994;-3.936;2023-01-28T06:14:21;5.10;99.90
74384;DHT22;62824;52.994;-3.936;2023-01-28T06:16:47;5.00;99.90
74384;DHT22;62824;52.994;-3.936;2023-01-28T06:19:12;5.10;99.90
74384;DHT22;62824;52.994;-3.936;2023-01-28T06:21:38;5.10;99.90
74384;DHT22;62824;52.994;-3.936;2023-01-28T06:24:04;5.10;99.90
74384;DHT22;62824;52.994;-3.936;2023-01-28T06:26:30;5.20;99.90
74384;DHT22;62824;52.994;-3.936;2023-01-28T06:28:56;5.20;99.90
74384;DHT22;62824;52.994;-3.936;2023-01-28T06:31:21;5.20;99.90
74384;DHT22;62824;52.994;-3.936;2023-01-28T06:33:47;5.20;99.90
74384;DHT22;62824;52.994;-3.936;2023-01-28T06:36:13;5.20;99.90
74384;DHT22;62824;52.994;-3.936;2023-01-28T06:38:39;5.10;99.90
74384;DHT22;62824;52.994;-3.936;2023-01-28T06:41:04;5.10;99.90
74384;DHT22;62824;52.994;-3.936;2023-01-28T06:43:30;5.10;99.90
74384;DHT22;62824;52.994;-3.936;2023-01-28T06:45:56;5.10;99.90
74384;DHT22;62824;52.994;-3.936;2023-01-28T06:48:23;5.10;99.90
74384;DHT22;62824;52.994;-3.936;2023-01-28T06:50:49;5.10;99.90
74384;DHT22;62824;52.994;-3.936;2023-01-28T06:53:15;5.10;99.90
74384;DHT22;62824;52.994;-3.936;2023-01-28T06:55:42;5.10;99.90
74384;DHT22;62824;52.994;-3.936;2023-01-28T06:58:07;5.10;99.90
74384;DHT22;62824;52.994;-3.936;2023-01-28T07:00:33;5.10;99.90
74384;DHT22;62824;52.994;-3.936;2023-01-28T07:02:59;5.10;99.90
74384;DHT22;62824;52.994;-3.936;2023-01-28T07:05:25;5.10;99.90
74384;DHT22;62824;52.994;-3.936;2023-01-28T07:07:51;5.20;99.90
74384;DHT22;62824;52.994;-3.936;2023-01-28T07:10:17;5.20;99.90
74384;DHT22;62824;52.994;-3.936;2023-01-28T07:12:43;5.20;99.90
74384;DHT22;62824;52.994;-3.936;2023-01-28T07:15:09;5.20;99.90
74384;DHT22;62824;52.994;-3.936;2023-01-28T07:17:38;5.30;99.90
74384;DHT22;62824;52.994;-3.936;2023-01-28T07:23:47;5.30;99.90
74384;DHT22;62824;52.994;-3.936;2023-01-28T07:26:13;5.30;99.90
74384;DHT22;62824;52.994;-3.936;2023-01-28T07:28:40;5.30;99.90
74384;DHT22;62824;52.994;-3.936;2023-01-28T07:31:05;5.30;99.90
74384;DHT22;62824;52.994;-3.936;2023-01-28T07:33:31;5.30;99.90
74384;DHT22;62824;52.994;-3.936;2023-01-28T07:35:57;5.30;99.90
74384;DHT22;62824;52.994;-3.936;2023-01-28T07:38:23;5.30;99.90
74384;DHT22;62824;52.994;-3.936;2023-01-28T07:40:49;5.20;99.90
74384;DHT22;62824;52.994;-3.936;2023-01-28T07:43:15;5.20;99.90
74384;DHT22;62824;52.994;-3.936;2023-01-28T07:45:40;5.20;99.90
74384;DHT22;62824;52.994;-3.936;2023-01-28T07:48:07;5.20;99.90
74384;DHT22;62824;52.994;-3.936;2023-01-28T07:50:36;5.30;99.90
74384;DHT22;62824;52.994;-3.936;2023-01-28T07:53:03;5.30;99.90
74384;DHT22;62824;52.994;-3.936;2023-01-28T07:55:30;5.20;99.90
74384;DHT22;62824;52.994;-3.936;2023-01-28T07:57:58;5.20;99.90
74384;DHT22;62824;52.994;-3.936;2023-01-28T08:00:26;5.20;99.90
74384;DHT22;62824;52.994;-3.936;2023-01-28T08:03:00;5.10;99.90
74384;DHT22;62824;52.994;-3.936;2023-01-28T08:05:36;5.10;99.90
74384;DHT22;62824;52.994;-3.936;2023-01-28T08:08:03;5.10;99.90
74384;DHT22;62824;52.994;-3.936;2023-01-28T08:10:29;5.10;99.90
74384;DHT22;62824;52.994;-3.936;2023-01-28T08:16:23;5.00;99.90
74384;DHT22;62824;52.994;-3.936;2023-01-28T08:18:49;5.00;99.90
74384;DHT22;62824;52.994;-3.936;2023-01-28T08:21:15;4.90;99.90
74384;DHT22;62824;52.994;-3.936;2023-01-28T08:23:40;4.90;99.90
74384;DHT22;62824;52.994;-3.936;2023-01-28T08:26:06;4.80;99.90
74384;DHT22;62824;52.994;-3.936;2023-01-28T08:28:32;4.80;99.90
74384;DHT22;62824;52.994;-3.936;2023-01-28T08:31:01;4.90;99.90
74384;DHT22;62824;52.994;-3.936;2023-01-28T08:33:27;4.90;99.90
74384;DHT22;62824;52.994;-3.936;2023-01-28T08:35:53;4.90;99.90
74384;DHT22;62824;52.994;-3.936;2023-01-28T08:38:18;4.90;99.90
74384;DHT22;62824;52.994;-3.936;2023-01-28T08:40:45;4.90;99.90
74384;DHT22;62824;52.994;-3.936;2023-01-28T08:43:11;4.90;99.90
74384;DHT22;62824;52.994;-3.936;2023-01-28T08:45:38;4.90;99.90
74384;DHT22;62824;52.994;-3.936;2023-01-28T08:48:05;4.90;99.90
74384;DHT22;62824;52.994;-3.936;2023-01-28T08:50:34;4.90;99.90
74384;DHT22;62824;52.994;-3.936;2023-01-28T08:53:05;5.00;99.90
74384;DHT22;62824;52.994;-3.936;2023-01-28T08:55:32;5.00;99.90
74384;DHT22;62824;52.994;-3.936;2023-01-28T08:58:05;5.00;99.90
74384;DHT22;62824;52.994;-3.936;2023-01-28T09:00:31;5.10;99.90
74384;DHT22;62824;52.994;-3.936;2023-01-28T09:02:57;5.10;99.90
74384;DHT22;62824;52.994;-3.936;2023-01-28T09:05:23;5.20;99.90
74384;DHT22;62824;52.994;-3.936;2023-01-28T09:07:49;5.20;99.90
74384;DHT22;62824;52.994;-3.936;2023-01-28T09:10:15;5.20;99.90
74384;DHT22;62824;52.994;-3.936;2023-01-28T09:12:42;5.30;99.90
74384;DHT22;62824;52.994;-3.936;2023-01-28T09:15:09;5.30;99.90
74384;DHT22;62824;52.994;-3.936;2023-01-28T09:17:35;5.30;99.90
74384;DHT22;62824;52.994;-3.936;2023-01-28T09:20:00;5.30;99.90
74384;DHT22;62824;52.994;-3.936;2023-01-28T09:22:27;5.20;99.90
74384;DHT22;62824;52.994;-3.936;2023-01-28T09:25:11;5.30;99.90
74384;DHT22;62824;52.994;-3.936;2023-01-28T09:27:37;5.40;99.90
74384;DHT22;62824;52.994;-3.936;2023-01-28T09:30:03;5.50;99.90
74384;DHT22;62824;52.994;-3.936;2023-01-28T09:32:29;5.50;99.90
74384;DHT22;62824;52.994;-3.936;2023-01-28T09:34:55;5.60;99.90
74384;DHT22;62824;52.994;-3.936;2023-01-28T09:37:21;5.50;99.90
74384;DHT22;62824;52.994;-3.936;2023-01-28T09:39:47;5.50;99.90
74384;DHT22;62824;52.994;-3.936;2023-01-28T09:42:36;5.50;99.90
74384;DHT22;62824;52.994;-3.936;2023-01-28T09:45:17;5.50;99.90
74384;DHT22;62824;52.994;-3.936;2023-01-28T09:47:50;5.50;99.90
74384;DHT22;62824;52.994;-3.936;2023-01-28T09:52:58;5.50;99.90
74384;DHT22;62824;52.994;-3.936;2023-01-28T09:55:33;5.60;99.90
74384;DHT22;62824;52.994;-3.936;2023-01-28T09:58:00;5.60;99.90
74384;DHT22;62824;52.994;-3.936;2023-01-28T10:03:32;5.60;99.90
74384;DHT22;62824;52.994;-3.936;2023-01-28T10:17:16;5.60;99.90
74384;DHT22;62824;52.994;-3.936;2023-01-28T10:19:52;5.70;99.90
74384;DHT22;62824;52.994;-3.936;2023-01-28T10:22:29;5.60;99.90
74384;DHT22;62824;52.994;-3.936;2023-01-28T10:25:01;5.60;99.90
74384;DHT22;62824;52.994;-3.936;2023-01-28T10:27:32;5.60;99.90
74384;DHT22;62824;52.994;-3.936;2023-01-28T10:29:59;5.70;99.90
74384;DHT22;62824;52.994;-3.936;2023-01-28T10:32:36;5.60;99.90
74384;DHT22;62824;52.994;-3.936;2023-01-28T10:35:03;5.60;99.90
74384;DHT22;62824;52.994;-3.936;2023-01-28T10:37:34;5.70;99.90
74384;DHT22;62824;52.994;-3.936;2023-01-28T10:40:01;5.70;99.90
74384;DHT22;62824;52.994;-3.936;2023-01-28T10:42:32;5.70;99.90
74384;DHT22;62824;52.994;-3.936;2023-01-28T10:45:02;5.70;99.90
74384;DHT22;62824;52.994;-3.936;2023-01-28T10:47:40;5.80;99.90
74384;DHT22;62824;52.994;-3.936;2023-01-28T10:50:20;5.70;99.90
74384;DHT22;62824;52.994;-3.936;2023-01-28T10:53:01;5.70;99.90
74384;DHT22;62824;52.994;-3.936;2023-01-28T10:55:43;5.70;99.90
74384;DHT22;62824;52.994;-3.936;2023-01-28T10:58:33;5.80;99.90
74384;DHT22;62824;52.994;-3.936;2023-01-28T11:01:02;5.80;99.90
74384;DHT22;62824;52.994;-3.936;2023-01-28T11:03:32;5.90;99.90
74384;DHT22;62824;52.994;-3.936;2023-01-28T11:06:01;5.90;99.90
74384;DHT22;62824;52.994;-3.936;2023-01-28T11:08:29;5.90;99.90
74384;DHT22;62824;52.994;-3.936;2023-01-28T11:10:56;5.90;99.90
74384;DHT22;62824;52.994;-3.936;2023-01-28T11:13:25;5.90;99.90
74384;DHT22;62824;52.994;-3.936;2023-01-28T11:16:02;5.90;99.90
74384;DHT22;62824;52.994;-3.936;2023-01-28T11:18:39;5.80;99.90
74384;DHT22;62824;52.994;-3.936;2023-01-28T11:21:23;5.90;99.90
74384;DHT22;62824;52.994;-3.936;2023-01-28T11:24:12;5.90;99.90
74384;DHT22;62824;52.994;-3.936;2023-01-28T11:26:43;5.80;99.90
74384;DHT22;62824;52.994;-3.936;2023-01-28T11:29:29;6.00;99.90
74384;DHT22;62824;52.994;-3.936;2023-01-28T11:31:57;5.90;99.90
74384;DHT22;62824;52.994;-3.936;2023-01-28T11:34:29;5.80;99.90
74384;DHT22;62824;52.994;-3.936;2023-01-28T11:37:02;5.80;99.90
74384;DHT22;62824;52.994;-3.936;2023-01-28T11:39:30;5.80;99.90
74384;DHT22;62824;52.994;-3.936;2023-01-28T11:42:23;5.90;99.90
74384;DHT22;62824;52.994;-3.936;2023-01-28T11:44:49;5.80;99.90
74384;DHT22;62824;52.994;-3.936;2023-01-28T11:47:32;5.90;99.90
74384;DHT22;62824;52.994;-3.936;2023-01-28T11:55:26;5.70;99.90
74384;DHT22;62824;52.994;-3.936;2023-01-28T11:58:20;5.70;99.90
74384;DHT22;62824;52.994;-3.936;2023-01-28T12:01:15;5.70;99.90
74384;DHT22;62824;52.994;-3.936;2023-01-28T12:12:25;5.90;99.90
74384;DHT22;62824;52.994;-3.936;2023-01-28T12:15:22;5.90;99.90
74384;DHT22;62824;52.994;-3.936;2023-01-28T12:20:57;6.00;99.90
74384;DHT22;62824;52.994;-3.936;2023-01-28T12:23:49;6.10;99.90
74384;DHT22;62824;52.994;-3.936;2023-01-28T12:45:44;6.20;99.90
74384;DHT22;62824;52.994;-3.936;2023-01-28T12:53:48;6.30;99.90
74384;DHT22;62824;52.994;-3.936;2023-01-28T12:56:41;6.30;99.90
74384;DHT22;62824;52.994;-3.936;2023-01-28T12:59:20;6.30;99.90
74384;DHT22;62824;52.994;-3.936;2023-01-28T13:07:34;6.40;99.90
74384;DHT22;62824;52.994;-3.936;2023-01-28T13:10:10;6.50;99.90
74384;DHT22;62824;52.994;-3.936;2023-01-28T13:13:03;6.50;99.90
74384;DHT22;62824;52.994;-3.936;2023-01-28T13:15:30;6.60;99.90
74384;DHT22;62824;52.994;-3.936;2023-01-28T13:17:59;6.60;99.90
74384;DHT22;62824;52.994;-3.936;2023-01-28T13:20:49;6.60;99.90
74384;DHT22;62824;52.994;-3.936;2023-01-28T13:23:36;6.60;99.90
74384;DHT22;62824;52.994;-3.936;2023-01-28T13:26:35;6.60;99.90
74384;DHT22;62824;52.994;-3.936;2023-01-28T13:29:16;6.60;99.90
74384;DHT22;62824;52.994;-3.936;2023-01-28T13:31:44;6.50;99.90
74384;DHT22;62824;52.994;-3.936;2023-01-28T13:37:16;6.60;99.90
74384;DHT22;62824;52.994;-3.936;2023-01-28T13:39:48;6.60;99.90
74384;DHT22;62824;52.994;-3.936;2023-01-28T13:42:26;6.60;99.90
74384;DHT22;62824;52.994;-3.936;2023-01-28T13:44:53;6.70;99.90
74384;DHT22;62824;52.994;-3.936;2023-01-28T13:47:33;6.60;99.90
74384;DHT22;62824;52.994;-3.936;2023-01-28T13:50:13;6.60;99.90
74384;DHT22;62824;52.994;-3.936;2023-01-28T13:55:24;6.60;99.90
74384;DHT22;62824;52.994;-3.936;2023-01-28T14:16:54;6.70;99.90
74384;DHT22;62824;52.994;-3.936;2023-01-28T14:19:30;6.70;99.90
74384;DHT22;62824;52.994;-3.936;2023-01-28T14:21:57;6.70;99.90
74384;DHT22;62824;52.994;-3.936;2023-01-28T14:24:23;6.70;99.90
74384;DHT22;62824;52.994;-3.936;2023-01-28T14:27:12;6.70;99.90
74384;DHT22;62824;52.994;-3.936;2023-01-28T14:32:18;6.80;99.90
74384;DHT22;62824;52.994;-3.936;2023-01-28T14:34:47;6.80;99.90
74384;DHT22;62824;52.994;-3.936;2023-01-28T14:37:16;6.80;99.90
74384;DHT22;62824;52.994;-3.936;2023-01-28T14:39:50;6.80;99.90
74384;DHT22;62824;52.994;-3.936;2023-01-28T14:42:24;6.80;99.90
74384;DHT22;62824;52.994;-3.936;2023-01-28T14:51:21;6.80;99.90
74384;DHT22;62824;52.994;-3.936;2023-01-28T14:59:14;6.90;99.90
74384;DHT22;62824;52.994;-3.936;2023-01-28T15:01:46;6.80;99.90
74384;DHT22;62824;52.994;-3.936;2023-01-28T15:04:33;6.80;99.90
74384;DHT22;62824;52.994;-3.936;2023-01-28T15:07:34;6.80;99.90
74384;DHT22;62824;52.994;-3.936;2023-01-28T15:12:27;6.70;99.90
74384;DHT22;62824;52.994;-3.936;2023-01-28T15:14:53;6.70;99.90
74384;DHT22;62824;52.994;-3.936;2023-01-28T15:17:25;6.70;99.90
74384;DHT22;62824;52.994;-3.936;2023-01-28T15:19:56;6.60;99.90
74384;DHT22;62824;52.994;-3.936;2023-01-28T15:22:26;6.60;99.90
74384;DHT22;62824;52.994;-3.936;2023-01-28T15:24:53;6.70;99.90
74384;DHT22;62824;52.994;-3.936;2023-01-28T15:27:27;6.70;99.90
74384;DHT22;62824;52.994;-3.936;2023-01-28T15:29:57;6.60;99.90
74384;DHT22;62824;52.994;-3.936;2023-01-28T15:32:28;6.60;99.90
74384;DHT22;62824;52.994;-3.936;2023-01-28T15:34:54;6.60;99.90
74384;DHT22;62824;52.994;-3.936;2023-01-28T15:37:21;6.60;99.90
74384;DHT22;62824;52.994;-3.936;2023-01-28T15:39:47;6.60;99.90
74384;DHT22;62824;52.994;-3.936;2023-01-28T15:42:22;6.60;99.90
74384;DHT22;62824;52.994;-3.936;2023-01-28T15:44:51;6.60;99.90
74384;DHT22;62824;52.994;-3.936;2023-01-28T15:47:30;6.70;99.90
74384;DHT22;62824;52.994;-3.936;2023-01-28T15:50:05;6.70;99.90
74384;DHT22;62824;52.994;-3.936;2023-01-28T15:52:37;6.70;99.90
74384;DHT22;62824;52.994;-3.936;2023-01-28T15:55:04;6.70;99.90
74384;DHT22;62824;52.994;-3.936;2023-01-28T15:57:32;6.70;99.90
74384;DHT22;62824;52.994;-3.936;2023-01-28T16:03:05;6.70;99.90
74384;DHT22;62824;52.994;-3.936;2023-01-28T16:05:40;6.70;99.90
74384;DHT22;62824;52.994;-3.936;2023-01-28T16:11:07;6.70;99.90
74384;DHT22;62824;52.994;-3.936;2023-01-28T16:13:34;6.70;99.90
74384;DHT22;62824;52.994;-3.936;2023-01-28T16:16:02;6.70;99.90
74384;DHT22;62824;52.994;-3.936;2023-01-28T16:20:55;6.70;99.90
74384;DHT22;62824;52.994;-3.936;2023-01-28T16:23:23;6.70;99.90
74384;DHT22;62824;52.994;-3.936;2023-01-28T16:26:05;6.70;99.90
74384;DHT22;62824;52.994;-3.936;2023-01-28T16:28:31;6.70;99.90
74384;DHT22;62824;52.994;-3.936;2023-01-28T16:30:58;6.70;99.90
74384;DHT22;62824;52.994;-3.936;2023-01-28T16:33:24;6.70;99.90
74384;DHT22;62824;52.994;-3.936;2023-01-28T16:35:50;6.70;99.90
74384;DHT22;62824;52.994;-3.936;2023-01-28T16:38:17;6.70;99.90
74384;DHT22;62824;52.994;-3.936;2023-01-28T16:40:44;6.70;99.90
74384;DHT22;62824;52.994;-3.936;2023-01-28T16:43:12;6.70;99.90
74384;DHT22;62824;52.994;-3.936;2023-01-28T16:45:38;6.70;99.90
74384;DHT22;62824;52.994;-3.936;2023-01-28T16:48:04;6.70;99.90
74384;DHT22;62824;52.994;-3.936;2023-01-28T16:50:31;6.70;99.90
74384;DHT22;62824;52.994;-3.936;2023-01-28T16:52:57;6.70;99.90
74384;DHT22;62824;52.994;-3.936;2023-01-28T16:55:23;6.60;99.90
74384;DHT22;62824;52.994;-3.936;2023-01-28T16:57:52;6.60;99.90
74384;DHT22;62824;52.994;-3.936;2023-01-28T17:00:22;6.60;99.90
74384;DHT22;62824;52.994;-3.936;2023-01-28T17:02:52;6.60;99.90
74384;DHT22;62824;52.994;-3.936;2023-01-28T17:05:19;6.60;99.90
74384;DHT22;62824;52.994;-3.936;2023-01-28T17:07:46;6.60;99.90
74384;DHT22;62824;52.994;-3.936;2023-01-28T17:10:13;6.50;99.90
74384;DHT22;62824;52.994;-3.936;2023-01-28T17:12:40;6.50;99.90
74384;DHT22;62824;52.994;-3.936;2023-01-28T17:15:06;6.50;99.90
74384;DHT22;62824;52.994;-3.936;2023-01-28T17:17:38;6.50;99.90
74384;DHT22;62824;52.994;-3.936;2023-01-28T17:20:04;6.50;99.90
74384;DHT22;62824;52.994;-3.936;2023-01-28T17:22:30;6.50;99.90
74384;DHT22;62824;52.994;-3.936;2023-01-28T17:24:56;6.50;99.90
74384;DHT22;62824;52.994;-3.936;2023-01-28T17:27:22;6.50;99.90
74384;DHT22;62824;52.994;-3.936;2023-01-28T17:29:48;6.50;99.90
74384;DHT22;62824;52.994;-3.936;2023-01-28T17:32:14;6.40;99.90
74384;DHT22;62824;52.994;-3.936;2023-01-28T17:34:39;6.40;99.90
74384;DHT22;62824;52.994;-3.936;2023-01-28T17:37:05;6.40;99.90
74384;DHT22;62824;52.994;-3.936;2023-01-28T17:39:31;6.30;99.90
74384;DHT22;62824;52.994;-3.936;2023-01-28T17:41:57;6.40;99.90
74384;DHT22;62824;52.994;-3.936;2023-01-28T17:44:22;6.40;99.90
74384;DHT22;62824;52.994;-3.936;2023-01-28T17:46:48;6.30;99.90
74384;DHT22;62824;52.994;-3.936;2023-01-28T17:49:14;6.20;99.90
74384;DHT22;62824;52.994;-3.936;2023-01-28T17:51:40;6.20;99.90
74384;DHT22;62824;52.994;-3.936;2023-01-28T17:54:06;6.20;99.90
74384;DHT22;62824;52.994;-3.936;2023-01-28T17:56:32;6.10;99.90
74384;DHT22;62824;52.994;-3.936;2023-01-28T17:59:00;6.00;99.90
74384;DHT22;62824;52.994;-3.936;2023-01-28T18:01:33;6.00;99.90
74384;DHT22;62824;52.994;-3.936;2023-01-28T18:04:00;6.00;99.90
74384;DHT22;62824;52.994;-3.936;2023-01-28T18:06:35;5.90;99.90
74384;DHT22;62824;52.994;-3.936;2023-01-28T18:09:02;5.90;99.90
74384;DHT22;62824;52.994;-3.936;2023-01-28T18:11:28;5.90;99.90
74384;DHT22;62824;52.994;-3.936;2023-01-28T18:13:54;5.80;99.90
74384;DHT22;62824;52.994;-3.936;2023-01-28T18:19:42;5.80;99.90
74384;DHT22;62824;52.994;-3.936;2023-01-28T18:22:08;5.80;99.90
74384;DHT22;62824;52.994;-3.936;2023-01-28T18:24:34;5.80;99.90
74384;DHT22;62824;52.994;-3.936;2023-01-28T18:27:00;5.80;99.90
74384;DHT22;62824;52.994;-3.936;2023-01-28T18:29:28;5.80;99.90
74384;DHT22;62824;52.994;-3.936;2023-01-28T18:31:56;5.80;99.90
74384;DHT22;62824;52.994;-3.936;2023-01-28T18:34:24;5.80;99.90